ADDS METAR Data INFO
IDs: Format: Raw Decoded Include TAF

Data at: 1015 UTC 12 Dec 2017

KORC 120955Z AUTO 27004KT 10SM CLR M11/M11 A3030 RMK AO2
KORC 120935Z AUTO 28005KT 10SM CLR M11/M11 A3030 RMK AO2
KORC 120915Z AUTO 27003KT 10SM CLR M09/M10 A3030 RMK AO2
KORC 120855Z AUTO 33004KT 10SM CLR M09/M10 A3030 RMK AO2
KORC 120835Z AUTO 31007KT 10SM CLR M09/M09 A3031 RMK AO2
KORC 120815Z AUTO 32006KT 10SM CLR M10/M10 A3031 RMK AO2
KORC 120755Z AUTO 32005KT 10SM CLR M09/M09 A3031 RMK AO2
KORC 120735Z AUTO 34008KT 10SM CLR M08/M09 A3031 RMK AO2
KORC 120715Z AUTO 33006KT 10SM CLR M08/M09 A3031 RMK AO2
KORC 120655Z AUTO 34007KT 10SM CLR M08/M09 A3031 RMK AO2
KORC 120635Z AUTO 34007KT 10SM CLR M08/M09 A3032 RMK AO2
KORC 120615Z AUTO 34007KT 10SM CLR M08/M09 A3032 RMK AO2
KORC 120555Z AUTO 35011KT 10SM CLR M08/M09 A3032 RMK AO2
KORC 120535Z AUTO 35008KT 10SM CLR M08/M09 A3032 RMK AO2
KORC 120515Z AUTO 34010KT 10SM CLR M07/M09 A3032 RMK AO2
KORC 120455Z AUTO 35010KT 10SM CLR M07/M09 A3032 RMK AO2
KORC 120435Z AUTO 34012KT 10SM CLR M07/M09 A3032 RMK AO2
KORC 120415Z AUTO 34013KT 10SM CLR M07/M09 A3031 RMK AO2
KORC 120355Z AUTO 34015KT 10SM CLR M06/M09 A3030 RMK AO2
KORC 120335Z AUTO 33011KT 10SM CLR M06/M08 A3030 RMK AO2
KORC 120315Z AUTO 34010G15KT 10SM CLR M06/M08 A3029 RMK AO2
KORC 120255Z AUTO 34014KT 10SM CLR M05/M08 A3029 RMK AO2
KORC 120235Z AUTO 34014G21KT 10SM CLR M04/M08 A3028 RMK AO2
KORC 120215Z AUTO 34016G19KT 10SM CLR M04/M07 A3026 RMK AO2
KORC 120155Z AUTO 34013G18KT 10SM CLR M03/M06 A3025 RMK AO2
KORC 120135Z AUTO 35012G17KT 10SM CLR M03/M05 A3025 RMK AO2
KORC 120115Z AUTO 34014G18KT 10SM CLR M03/M04 A3024 RMK AO2
KORC 120055Z AUTO 35010G16KT 10SM CLR M03/M05 A3023 RMK AO2
KORC 120035Z AUTO 35011G19KT 10SM CLR M02/M05 A3021 RMK AO2
KORC 120015Z AUTO 34014G18KT 10SM CLR M02/M05 A3020 RMK AO2
KORC 112355Z AUTO 33013G20KT 10SM CLR M02/M04 A3018 RMK AO2
KORC 112335Z AUTO 34020G25KT 10SM CLR M01/M04 A3017 RMK AO2
KORC 112315Z AUTO 34016G27KT 10SM SCT026 00/M04 A3015 RMK AO2
KORC 112255Z AUTO 33017G24KT 10SM BKN026 01/M03 A3014 RMK AO2
KORC 112235Z AUTO 35013G20KT 10SM BKN026 01/M03 A3012 RMK AO2
KORC 112215Z AUTO 35017G26KT 10SM SCT026 01/M03 A3011 RMK AO2
KORC 112155Z AUTO 34014G24KT 10SM OVC026 02/M02 A3011 RMK AO2
KORC 112135Z AUTO 35014G23KT 10SM BKN026 02/M02 A3009 RMK AO2
KORC 112115Z AUTO 35020G29KT 10SM BKN022 02/M02 A3007 RMK AO2
KORC 112055Z AUTO 35016G26KT 10SM OVC020 02/M01 A3005 RMK AO2
KORC 112035Z AUTO 35018G31KT 10SM OVC020 02/M01 A3004 RMK AO2
KORC 112015Z AUTO 35022G32KT 10SM OVC020 03/00 A3002 RMK AO2
KORC 111955Z AUTO 36017G31KT 10SM OVC020 03/00 A3001 RMK AO2
KORC 111935Z AUTO 34026G37KT 10SM OVC020 03/01 A2999 RMK AO2
KORC 111915Z AUTO 34018G29KT 10SM OVC018 04/02 A2998 RMK AO2
KORC 111855Z AUTO 34019G27KT 10SM BKN016 OVC020 04/02 A2996 RMK AO2
KORC 111835Z AUTO 33022G29KT 10SM OVC016 04/02 A2995 RMK AO2
KORC 111815Z AUTO 32015G22KT 10SM OVC016 04/02 A2995 RMK AO2
KORC 111755Z AUTO 33018G29KT 10SM BKN014 OVC020 04/02 A2994 RMK AO2
KORC 111735Z AUTO 34017G26KT 10SM OVC022 05/03 A2992 RMK AO2
KORC 111715Z AUTO 33015G23KT 10SM BKN022 04/03 A2993 RMK AO2
KORC 111655Z AUTO 33018G24KT 10SM -DZ SCT018 BKN026 OVC038 05/03 A2992 RMK AO2
KORC 111635Z AUTO 33019G25KT 10SM OVC018 05/03 A2991 RMK AO2
KORC 111615Z AUTO 32022G27KT 10SM OVC020 05/03 A2990 RMK AO2
KORC 111555Z AUTO 32018G27KT 10SM OVC022 05/03 A2988 RMK AO2
KORC 111535Z AUTO 31019G26KT 10SM -DZ OVC024 05/02 A2988 RMK AO2
KORC 111515Z AUTO 30023G29KT 10SM OVC026 05/01 A2986 RMK AO2
KORC 111455Z AUTO 31021G28KT 10SM BKN030 BKN036 OVC044 05/01 A2986 RMK AO2
KORC 111435Z AUTO 30019G27KT 10SM BKN033 OVC041 05/00 A2985 RMK AO2
KORC 111415Z AUTO 30017G24KT 10SM SCT033 BKN041 OVC047 04/00 A2985 RMK AO2
KORC 111355Z AUTO 30016G21KT 10SM OVC039 04/M01 A2985 RMK AO2
KORC 111335Z AUTO 31017G24KT 10SM BKN037 OVC090 04/M01 A2984 RMK AO2
KORC 111315Z AUTO 32017G26KT 10SM SCT035 BKN100 04/M01 A2984 RMK AO2
KORC 111255Z AUTO 31021G25KT 10SM SCT100 04/M02 A2983 RMK AO2
KORC 111235Z AUTO 31018G26KT 10SM CLR 03/M02 A2983 RMK AO2
KORC 111215Z AUTO 30019G24KT 10SM CLR 03/M03 A2983 RMK AO2
KORC 111155Z AUTO 29016KT 10SM CLR 03/M03 A2982 RMK AO2
KORC 111135Z AUTO 27013KT 10SM CLR 01/M03 A2982 RMK AO2
KORC 111115Z AUTO 26008KT 10SM CLR 01/M03 A2981 RMK AO2
KORC 111055Z AUTO 27006KT 10SM CLR 01/M03 A2983 RMK AO2
KORC 111035Z AUTO 27010KT 10SM CLR 02/M03 A2983 RMK AO2
KORC 111015Z AUTO 27011KT 10SM CLR 01/M03 A2984 RMK AO2
KORC 110955Z AUTO 25009KT 10SM CLR 02/M02 A2984 RMK AO2
KORC 110935Z AUTO 25008KT 10SM CLR 01/M02 A2986 RMK AO2
KORC 110915Z AUTO 19004KT 10SM CLR 01/M02 A2985 RMK AO2
KORC 110855Z AUTO 22003KT 10SM CLR 01/M02 A2987 RMK AO2
KORC 110835Z AUTO 23003KT 10SM CLR 02/M02 A2988 RMK AO2
KORC 110815Z AUTO 24005KT 10SM CLR 02/M02 A2990 RMK AO2
KORC 110755Z AUTO 24008KT 10SM CLR 02/M02 A2991 RMK AO2
KORC 110735Z AUTO 28006KT 10SM CLR 02/M01 A2994 RMK AO2
KORC 110715Z AUTO 28004KT 10SM CLR 02/M01 A2994 RMK AO2
KORC 110655Z AUTO 24005KT 10SM CLR 01/M01 A2992 RMK AO2
KORC 110635Z AUTO 19005KT 10SM CLR 02/M02 A2991 RMK AO2
KORC 110615Z AUTO 24005KT 10SM CLR 02/M01 A2994 RMK AO2
KORC 110555Z AUTO 24007KT 10SM CLR 02/M02 A2995 RMK AO2
KORC 110535Z AUTO 26006KT 10SM CLR 01/M02 A2996 RMK AO2
KORC 110515Z AUTO 25007KT 10SM CLR 01/M02 A2997 RMK AO2
KORC 110455Z AUTO 00000KT 10SM CLR M01/M02 A2997 RMK AO2
KORC 110435Z AUTO 23005KT 10SM CLR 01/M02 A2997 RMK AO2
KORC 110415Z AUTO 24005KT 10SM CLR 01/M01 A2999 RMK AO2
KORC 110355Z AUTO 22004KT 10SM CLR 02/M01 A2999 RMK AO2
KORC 110335Z AUTO 21004KT 10SM CLR 01/M01 A2999 RMK AO2
KORC 110315Z AUTO 20004KT 10SM CLR 02/M01 A3001 RMK AO2
KORC 110255Z AUTO 19004KT 10SM CLR 02/M01 A3001 RMK AO2
KORC 110235Z AUTO 20003KT 10SM CLR 02/M01 A3003 RMK AO2
KORC 110215Z AUTO 26004KT 10SM CLR 02/M01 A3004 RMK AO2
KORC 110155Z AUTO 00000KT 10SM CLR 02/M01 A3004 RMK AO2
KORC 110135Z AUTO 27003KT 10SM CLR 02/M01 A3005 RMK AO2
KORC 110115Z AUTO 29003KT 10SM CLR 01/M01 A3006 RMK AO2
KORC 110055Z AUTO 00000KT 10SM CLR 01/M02 A3006 RMK AO2
KORC 110035Z AUTO 00000KT 10SM CLR 02/M01 A3007 RMK AO2
KORC 110015Z AUTO 25003KT 10SM CLR 02/M01 A3007 RMK AO2
KORC 102355Z AUTO 25005KT 10SM CLR 01/M01 A3007 RMK AO2
KORC 102335Z AUTO 27005KT 10SM CLR 01/M01 A3007 RMK AO2
KORC 102315Z AUTO 26006KT 10SM CLR 02/M01 A3007 RMK AO2
KORC 102255Z AUTO 28005KT 10SM CLR 02/M01 A3007 RMK AO2
KORC 102235Z AUTO 29006KT 10SM CLR 04/M01 A3007 RMK AO2